San Benjamino — HBLW — position and weather

sailwx.info

Track history (hours):
 
Tides and Currents Weather Stations Pressure Air Temp Water Temp Dewpoint Dewpoint Depression Visibility Wind Speed Wind Dir Waves Ship Positions

San Benjamino

Last reported at 2017-Sep-18 07:28 UTC. Time now 2017-Sep-21 23:19 UTC.
Position N 38°29' E 025°12'.

Length 190 m; draft 10.5 m.

Type: Cargo ship. MMSI: 269095000.

Date/timePositionNaut miles runAvg speedWind from/ knotsBaromVisibWave heightAir tempDewpointWater temp
2017-Sep-18 07:28N 38°29' E 025°12'613.8
2017-Sep-18 07:00N 38°24' E 025°07'7714.0
2017-Sep-18 01:32N 37°20' E 024°13'014.1
2017-Sep-18 01:30N 37°20' E 024°13'714.1
2017-Sep-18 01:00N 37°14' E 024°07'714.0
2017-Sep-18 00:30N 37°09' E 024°02'713.9
2017-Sep-18 00:00N 37°04' E 023°56'713.9
2017-Sep-17 23:30N 36°58' E 023°51'713.9
2017-Sep-17 23:00N 36°53' E 023°45'713.8
2017-Sep-17 22:30N 36°47' E 023°40'7212.9
2017-Sep-17 16:53N 36°20' E 022°17'514.5
2017-Sep-17 16:31N 36°20' E 022°10'714.5
2017-Sep-17 16:01N 36°20' E 022°01'714.7
2017-Sep-17 15:30N 36°20' E 021°52'914.7
2017-Sep-17 14:54N 36°20' E 021°41'614.7
2017-Sep-17 14:31N 36°20' E 021°34'914.6
2017-Sep-17 13:52N 36°20' E 021°22'514.5
2017-Sep-17 13:30N 36°20' E 021°15'714.3
2017-Sep-17 12:59N 36°20' E 021°06'714.1
2017-Sep-17 12:31N 36°20' E 020°58'714.1
2017-Sep-17 12:01N 36°20' E 020°49'1714.1
2017-Sep-17 10:47N 36°19' E 020°27'414.2
2017-Sep-17 10:28N 36°20' E 020°22'714.1
2017-Sep-17 09:57N 36°20' E 020°13'714.1
2017-Sep-17 09:28N 36°20' E 020°04'714.2
2017-Sep-17 09:00N 36°20' E 019°56'714.2
2017-Sep-17 08:30N 36°20' E 019°48'714.2
2017-Sep-17 08:01N 36°20' E 019°39'714.1
2017-Sep-17 07:31N 36°20' E 019°30'714.0
2017-Sep-17 07:00N 36°19' E 019°21'713.6
2017-Sep-17 06:30N 36°20' E 019°13'713.5
2017-Sep-17 06:00N 36°20' E 019°05'713.4
2017-Sep-17 05:28N 36°20' E 018°56'613.3
2017-Sep-17 05:00N 36°20' E 018°48'713.5
2017-Sep-17 04:30N 36°20' E 018°40'713.7
2017-Sep-17 04:00N 36°20' E 018°31'713.8
2017-Sep-17 03:30N 36°20' E 018°23'713.8
2017-Sep-17 03:00N 36°20' E 018°14'714.1
2017-Sep-17 02:30N 36°20' E 018°05'713.7
2017-Sep-17 02:00N 36°20' E 017°57'713.6
2017-Sep-17 01:30N 36°20' E 017°48'713.4
2017-Sep-17 01:00N 36°20' E 017°40'713.4
2017-Sep-17 00:30N 36°20' E 017°32'713.4
2017-Sep-17 00:00N 36°20' E 017°23'713.4
2017-Sep-16 23:30N 36°20' E 017°15'813.5
2017-Sep-16 22:54N 36°20' E 017°05'613.6
2017-Sep-16 22:30N 36°20' E 016°58'713.7
2017-Sep-16 22:00N 36°20' E 016°50'713.7
2017-Sep-16 21:30N 36°20' E 016°41'713.7
2017-Sep-16 21:00N 36°20' E 016°33'713.6
2017-Sep-16 20:30N 36°20' E 016°24'713.3
2017-Sep-16 20:00N 36°21' E 016°16'713.3
2017-Sep-16 19:30N 36°20' E 016°08'713.3
2017-Sep-16 19:00N 36°20' E 015°60'613.0
2017-Sep-16 18:30N 36°20' E 015°52'713.1
2017-Sep-16 18:00N 36°20' E 015°43'713.3
2017-Sep-16 17:30N 36°20' E 015°35'613.1
2017-Sep-16 17:00N 36°20' E 015°27'713.0
2017-Sep-16 16:30N 36°20' E 015°19'713.9
2017-Sep-16 16:00N 36°20' E 015°10'714.2
2017-Sep-16 15:30N 36°20' E 015°02'714.2
2017-Sep-16 15:00N 36°22' E 014°53'714.2
2017-Sep-16 14:30N 36°25' E 014°45'714.0
2017-Sep-16 14:00N 36°27' E 014°37'713.9
2017-Sep-16 13:30N 36°29' E 014°28'713.9
2017-Sep-16 13:01N 36°31' E 014°20'714.0
2017-Sep-16 12:30N 36°33' E 014°12'714.1
2017-Sep-16 12:00N 36°35' E 014°03'713.8
2017-Sep-16 11:31N 36°37' E 013°55'713.6
2017-Sep-16 11:00N 36°39' E 013°47'713.5
2017-Sep-16 10:31N 36°41' E 013°39'713.6
2017-Sep-16 10:00N 36°43' E 013°31'713.5
2017-Sep-16 09:30N 36°46' E 013°23'713.4
2017-Sep-16 09:00N 36°48' E 013°15'713.5
2017-Sep-16 08:30N 36°50' E 013°07'713.5
2017-Sep-16 08:01N 36°52' E 012°59'713.4
2017-Sep-16 07:31N 36°54' E 012°51'713.4
2017-Sep-16 07:01N 36°56' E 012°43'713.5
2017-Sep-16 06:30N 36°58' E 012°35'713.2
2017-Sep-16 06:00N 37°00' E 012°27'713.2
2017-Sep-16 05:30N 37°02' E 012°20'713.2
2017-Sep-16 05:00N 37°04' E 012°12'713.5
2017-Sep-16 04:31N 37°07' E 012°04'713.3
2017-Sep-16 04:01N 37°09' E 011°56'712.9
2017-Sep-16 03:30N 37°11' E 011°48'613.1
2017-Sep-16 03:00N 37°13' E 011°40'713.2
2017-Sep-16 02:30N 37°15' E 011°32'713.3
2017-Sep-16 02:00N 37°17' E 011°24'2113.5
2017-Sep-16 00:26N 37°26' E 011°00'713.6
2017-Sep-15 23:57N 37°27' E 010°52'1113.8
2017-Sep-15 23:08N 37°30' E 010°38'214.1
2017-Sep-15 23:00N 37°30' E 010°36'714.2
2017-Sep-15 22:30N 37°32' E 010°27'714.5
2017-Sep-15 22:00N 37°33' E 010°19'714.3
2017-Sep-15 21:30N 37°34' E 010°09'714.1
2017-Sep-15 21:00N 37°34' E 010°01'713.9
2017-Sep-15 20:30N 37°35' E 009°52'714.0
2017-Sep-15 20:00N 37°35' E 009°43'814.0
2017-Sep-15 19:27N 37°36' E 009°33'4613.4
2017-Sep-15 16:01N 37°35' E 008°35'013.0
2017-Sep-15 15:59N 37°35' E 008°35'1012.7
2017-Sep-15 15:11N 37°34' E 008°22'2512.6
2017-Sep-15 13:13N 37°30' E 007°51'313.1
2017-Sep-15 12:59N 37°30' E 007°47'19913.6
2017-Sep-14 22:23N 37°02' E 003°40'513.5
2017-Sep-14 22:00N 36°60' E 003°34'913.7
2017-Sep-14 21:20N 36°58' E 003°23'2314.0
2017-Sep-14 19:41N 36°55' E 002°54'213.8
2017-Sep-14 19:30N 36°54' E 002°51'714.0
2017-Sep-14 19:00N 36°53' E 002°42'713.6
2017-Sep-14 18:29N 36°52' E 002°34'914.0
2017-Sep-14 17:52N 36°51' E 002°23'713.7
2017-Sep-14 17:22N 36°50' E 002°15'613.5
2017-Sep-14 16:57N 36°49' E 002°08'613.3
2017-Sep-14 16:30N 36°48' E 002°00'713.2
2017-Sep-14 16:00N 36°47' E 001°52'813.3
2017-Sep-14 15:25N 36°46' E 001°43'613.3
2017-Sep-14 14:59N 36°45' E 001°35'713.4
2017-Sep-14 14:29N 36°44' E 001°27'713.6
2017-Sep-14 13:59N 36°43' E 001°19'713.4
2017-Sep-14 13:28N 36°42' E 001°10'613.6
2017-Sep-14 13:00N 36°41' E 001°03'1214.1
2017-Sep-14 12:08N 36°40' E 000°48'214.3
2017-Sep-14 12:00N 36°39' E 000°45'714.3
2017-Sep-14 11:30N 36°38' E 000°36'714.2
2017-Sep-14 11:00N 36°37' E 000°28'1314.0
2017-Sep-14 10:03N 36°35' E 000°11'113.8
2017-Sep-14 09:58N 36°35' E 000°10'2913.8
2017-Sep-14 07:53N 36°31' W 000°25'513.7
2017-Sep-14 07:30N 36°30' W 000°32'713.5
2017-Sep-14 07:00N 36°29' W 000°40'713.6
2017-Sep-14 06:29N 36°28' W 000°49'813.5
2017-Sep-14 05:55N 36°27' W 000°59'613.8
2017-Sep-14 05:29N 36°26' W 001°06'714.0
2017-Sep-14 05:00N 36°25' W 001°14'914.3
2017-Sep-14 04:22N 36°24' W 001°25'514.3
2017-Sep-14 04:00N 36°23' W 001°32'714.2
2017-Sep-14 03:30N 36°22' W 001°40'714.1
2017-Sep-14 03:00N 36°21' W 001°49'714.0
2017-Sep-14 02:30N 36°20' W 001°58'713.8
2017-Sep-14 02:00N 36°19' W 002°06'15213.9
2017-Sep-13 15:02N 35°56' W 005°12'112.6
2017-Sep-13 14:59N 35°56' W 005°13'511.2
2017-Sep-13 14:30N 35°55' W 005°20'0 0.8
2017-Sep-13 13:58N 35°55' W 005°20'0 0.0
2017-Sep-13 13:28N 35°55' W 005°20'0 0.1
2017-Sep-13 12:58N 35°55' W 005°20'0 0.0
2017-Sep-13 12:28N 35°55' W 005°20'0 0.0
2017-Sep-13 11:58N 35°55' W 005°20'0 0.0
2017-Sep-13 11:28N 35°55' W 005°20'0 0.0
2017-Sep-13 10:58N 35°55' W 005°20'0 0.0
2017-Sep-13 10:28N 35°55' W 005°20'0 0.1
2017-Sep-13 09:58N 35°55' W 005°20'0 0.0
2017-Sep-13 09:28N 35°55' W 005°20'0 0.1
2017-Sep-13 08:58N 35°55' W 005°20'0 0.1
2017-Sep-13 08:28N 35°55' W 005°20'0 0.1
2017-Sep-13 07:58N 35°55' W 005°20'0 0.1
2017-Sep-13 07:28N 35°55' W 005°20'0 0.0
2017-Sep-13 06:58N 35°55' W 005°20'0 0.0
2017-Sep-13 06:28N 35°55' W 005°20'0 0.1
2017-Sep-13 05:58N 35°55' W 005°20'0 0.0
2017-Sep-13 05:28N 35°55' W 005°20'0 0.0
2017-Sep-13 04:58N 35°55' W 005°20'0 0.1
2017-Sep-13 04:29N 35°55' W 005°20'0 0.0
2017-Sep-13 03:59N 35°55' W 005°20'0 0.0
2017-Sep-13 03:29N 35°55' W 005°20'0 0.1
2017-Sep-13 02:59N 35°55' W 005°20'0 0.1
2017-Sep-13 02:29N 35°55' W 005°20'0 0.6
2017-Sep-13 02:00N 35°55' W 005°20'2 4.8
2017-Sep-13 01:30N 35°57' W 005°22'612.1
2017-Sep-13 01:00N 35°56' W 005°30'713.0
2017-Sep-13 00:27N 35°54' W 005°39'612.6
2017-Sep-13 00:00N 35°54' W 005°45'1312.8
2017-Sep-12 22:59N 35°54' W 006°02'8513.2
2017-Sep-12 16:31N 36°13' W 007°44'013.1
2017-Sep-12 16:30N 36°13' W 007°45'713.2
2017-Sep-12 16:00N 36°15' W 007°52'713.3
2017-Sep-12 15:30N 36°17' W 008°00'713.3
2017-Sep-12 15:00N 36°19' W 008°08'713.3
2017-Sep-12 14:30N 36°21' W 008°16'1213.4
2017-Sep-12 13:34N 36°24' W 008°31'113.5
2017-Sep-12 13:30N 36°24' W 008°32'713.7
2017-Sep-12 13:00N 36°26' W 008°41'713.5
2017-Sep-12 12:30N 36°28' W 008°49'713.4
2017-Sep-12 12:00N 36°29' W 008°57'713.5
2017-Sep-12 11:30N 36°31' W 009°05'813.6
2017-Sep-12 10:53N 36°34' W 009°15'713.3
2017-Sep-12 10:20N 36°38' W 009°22'513.4
2017-Sep-12 09:59N 36°41' W 009°26'4713.0
2017-Sep-12 06:24N 37°26' W 009°44'513.4
2017-Sep-12 06:00N 37°31' W 009°45'713.3
2017-Sep-12 05:30N 37°37' W 009°47'712.9
2017-Sep-12 05:00N 37°44' W 009°49'912.6
2017-Sep-12 04:16N 37°53' W 009°51'312.9
2017-Sep-12 04:00N 37°56' W 009°52'613.0
2017-Sep-12 03:30N 38°02' W 009°54'713.1
2017-Sep-12 03:00N 38°09' W 009°56'713.0
2017-Sep-12 02:30N 38°15' W 009°58'713.4
2017-Sep-12 02:00N 38°21' W 010°00'713.4
2017-Sep-12 01:30N 38°28' W 010°02'713.6
2017-Sep-12 01:00N 38°35' W 010°04'714.1
2017-Sep-12 00:30N 38°42' W 010°06'713.8
2017-Sep-12 00:00N 38°48' W 010°06'713.6
2017-Sep-11 23:30N 38°55' W 010°06'714.4
2017-Sep-11 23:00N 39°02' W 010°06'714.1
2017-Sep-11 22:30N 39°09' W 010°06'713.6
2017-Sep-11 22:00N 39°16' W 010°06'713.5
2017-Sep-11 21:30N 39°23' W 010°06'713.6
2017-Sep-11 21:00N 39°30' W 010°06'713.9
2017-Sep-11 20:30N 39°37' W 010°06'713.9
2017-Sep-11 20:00N 39°44' W 010°06'713.9
2017-Sep-11 19:29N 39°51' W 010°06'713.8
2017-Sep-11 19:00N 39°58' W 010°06'713.2
2017-Sep-11 18:30N 40°04' W 010°06'713.7
2017-Sep-11 18:00N 40°11' W 010°06'713.7
2017-Sep-11 17:30N 40°18' W 010°06'1513.2
2017-Sep-11 16:21N 40°33' W 010°06'613.4
2017-Sep-11 15:53N 40°39' W 010°06'59611.7
2017-Sep-09 13:08N 49°36' W 003°58'214.0
2017-Sep-09 13:00N 49°36' W 003°56'713.7
2017-Sep-09 12:30N 49°40' W 003°47'713.1
2017-Sep-09 12:00N 49°43' W 003°38'612.6
2017-Sep-09 11:30N 49°46' W 003°30'612.0
2017-Sep-09 11:00N 49°49' W 003°22'611.6
2017-Sep-09 10:30N 49°52' W 003°14'511.0
2017-Sep-09 10:00N 49°55' W 003°06'510.6
2017-Sep-09 09:30N 49°58' W 002°59'510.2
2017-Sep-09 09:00N 49°60' W 002°52'510.2
2017-Sep-09 08:30N 50°01' W 002°44'610.4
2017-Sep-09 07:58N 50°03' W 002°36'2411.7
2017-Sep-09 05:56N 50°09' W 002°00'614.1
2017-Sep-09 05:30N 50°11' W 001°51'815.1
2017-Sep-09 05:01N 50°13' W 001°40'815.7
2017-Sep-09 04:30N 50°15' W 001°28'816.0
2017-Sep-09 04:00N 50°17' W 001°16'3115.4
2017-Sep-09 01:58N 50°25' W 000°28'613.7
2017-Sep-09 01:30N 50°26' W 000°19'613.0
2017-Sep-09 01:00N 50°28' W 000°09'612.2
2017-Sep-09 00:30N 50°30' E 000°00'611.6
2017-Sep-09 00:00N 50°32' E 000°09'611.0
2017-Sep-08 23:30N 50°33' E 000°17'510.7
2017-Sep-08 23:00N 50°34' E 000°25'510.1
2017-Sep-08 22:30N 50°36' E 000°33'510.1
2017-Sep-08 22:00N 50°38' E 000°40'510.4
2017-Sep-08 21:30N 50°41' E 000°47'611.2
2017-Sep-08 21:00N 50°44' E 000°54'612.0
2017-Sep-08 20:30N 50°48' E 001°02'713.2
2017-Sep-08 20:00N 50°52' E 001°11'713.4
2017-Sep-08 19:30N 50°55' E 001°19'714.1
2017-Sep-08 19:00N 51°01' E 001°26'713.1
2017-Sep-08 18:30N 51°06' E 001°33'612.3
2017-Sep-08 18:00N 51°10' E 001°40'611.7
2017-Sep-08 17:30N 51°14' E 001°46'611.3
2017-Sep-08 17:00N 51°19' E 001°50'510.8
2017-Sep-08 16:30N 51°24' E 001°54'510.3
2017-Sep-08 16:00N 51°28' E 001°59'510.2
2017-Sep-08 15:30N 51°32' E 002°05'510.0
2017-Sep-08 15:00N 51°36' E 002°10'5 9.9
2017-Sep-08 14:30N 51°40' E 002°16'1510.8
2017-Sep-08 13:04N 51°51' E 002°32'111.6
2017-Sep-08 13:00N 51°52' E 002°33'  
Track history (hours):
 
Tides and Currents Weather Stations Pressure Air Temp Water Temp Dewpoint Dewpoint Depression Visibility Wind Speed Wind Dir Waves Ship Positions

San Benjamino

Last reported at 2017-Sep-18 07:28 UTC. Time now 2017-Sep-21 23:19 UTC.
Position N 38°29' E 025°12'.

Length 190 m; draft 10.5 m.

Type: Cargo ship. MMSI: 269095000.

Date/timePositionNaut miles runAvg speedWind from/ knotsBaromVisibWave heightAir tempDewpointWater temp
2017-Sep-18 07:28N 38°29' E 025°12'613.8
2017-Sep-18 07:00N 38°24' E 025°07'7714.0
2017-Sep-18 01:32N 37°20' E 024°13'014.1
2017-Sep-18 01:30N 37°20' E 024°13'714.1
2017-Sep-18 01:00N 37°14' E 024°07'714.0
2017-Sep-18 00:30N 37°09' E 024°02'713.9
2017-Sep-18 00:00N 37°04' E 023°56'713.9
2017-Sep-17 23:30N 36°58' E 023°51'713.9
2017-Sep-17 23:00N 36°53' E 023°45'713.8
2017-Sep-17 22:30N 36°47' E 023°40'7212.9
2017-Sep-17 16:53N 36°20' E 022°17'514.5
2017-Sep-17 16:31N 36°20' E 022°10'714.5
2017-Sep-17 16:01N 36°20' E 022°01'714.7
2017-Sep-17 15:30N 36°20' E 021°52'914.7
2017-Sep-17 14:54N 36°20' E 021°41'614.7
2017-Sep-17 14:31N 36°20' E 021°34'914.6
2017-Sep-17 13:52N 36°20' E 021°22'514.5
2017-Sep-17 13:30N 36°20' E 021°15'714.3
2017-Sep-17 12:59N 36°20' E 021°06'714.1
2017-Sep-17 12:31N 36°20' E 020°58'714.1
2017-Sep-17 12:01N 36°20' E 020°49'1714.1
2017-Sep-17 10:47N 36°19' E 020°27'414.2
2017-Sep-17 10:28N 36°20' E 020°22'714.1
2017-Sep-17 09:57N 36°20' E 020°13'714.1
2017-Sep-17 09:28N 36°20' E 020°04'714.2
2017-Sep-17 09:00N 36°20' E 019°56'714.2
2017-Sep-17 08:30N 36°20' E 019°48'714.2
2017-Sep-17 08:01N 36°20' E 019°39'714.1
2017-Sep-17 07:31N 36°20' E 019°30'714.0
2017-Sep-17 07:00N 36°19' E 019°21'713.6
2017-Sep-17 06:30N 36°20' E 019°13'713.5
2017-Sep-17 06:00N 36°20' E 019°05'713.4
2017-Sep-17 05:28N 36°20' E 018°56'613.3
2017-Sep-17 05:00N 36°20' E 018°48'713.5
2017-Sep-17 04:30N 36°20' E 018°40'713.7
2017-Sep-17 04:00N 36°20' E 018°31'713.8
2017-Sep-17 03:30N 36°20' E 018°23'713.8
2017-Sep-17 03:00N 36°20' E 018°14'714.1
2017-Sep-17 02:30N 36°20' E 018°05'713.7
2017-Sep-17 02:00N 36°20' E 017°57'713.6
2017-Sep-17 01:30N 36°20' E 017°48'713.4
2017-Sep-17 01:00N 36°20' E 017°40'713.4
2017-Sep-17 00:30N 36°20' E 017°32'713.4
2017-Sep-17 00:00N 36°20' E 017°23'713.4
2017-Sep-16 23:30N 36°20' E 017°15'813.5
2017-Sep-16 22:54N 36°20' E 017°05'613.6
2017-Sep-16 22:30N 36°20' E 016°58'713.7
2017-Sep-16 22:00N 36°20' E 016°50'713.7
2017-Sep-16 21:30N 36°20' E 016°41'713.7
2017-Sep-16 21:00N 36°20' E 016°33'713.6
2017-Sep-16 20:30N 36°20' E 016°24'713.3
2017-Sep-16 20:00N 36°21' E 016°16'713.3
2017-Sep-16 19:30N 36°20' E 016°08'713.3
2017-Sep-16 19:00N 36°20' E 015°60'613.0
2017-Sep-16 18:30N 36°20' E 015°52'713.1
2017-Sep-16 18:00N 36°20' E 015°43'713.3
2017-Sep-16 17:30N 36°20' E 015°35'613.1
2017-Sep-16 17:00N 36°20' E 015°27'713.0
2017-Sep-16 16:30N 36°20' E 015°19'713.9
2017-Sep-16 16:00N 36°20' E 015°10'714.2
2017-Sep-16 15:30N 36°20' E 015°02'714.2
2017-Sep-16 15:00N 36°22' E 014°53'714.2
2017-Sep-16 14:30N 36°25' E 014°45'714.0
2017-Sep-16 14:00N 36°27' E 014°37'713.9
2017-Sep-16 13:30N 36°29' E 014°28'713.9
2017-Sep-16 13:01N 36°31' E 014°20'714.0
2017-Sep-16 12:30N 36°33' E 014°12'714.1
2017-Sep-16 12:00N 36°35' E 014°03'713.8
2017-Sep-16 11:31N 36°37' E 013°55'713.6
2017-Sep-16 11:00N 36°39' E 013°47'713.5
2017-Sep-16 10:31N 36°41' E 013°39'713.6
2017-Sep-16 10:00N 36°43' E 013°31'713.5
2017-Sep-16 09:30N 36°46' E 013°23'713.4
2017-Sep-16 09:00N 36°48' E 013°15'713.5
2017-Sep-16 08:30N 36°50' E 013°07'713.5
2017-Sep-16 08:01N 36°52' E 012°59'713.4
2017-Sep-16 07:31N 36°54' E 012°51'713.4
2017-Sep-16 07:01N 36°56' E 012°43'713.5
2017-Sep-16 06:30N 36°58' E 012°35'713.2
2017-Sep-16 06:00N 37°00' E 012°27'713.2
2017-Sep-16 05:30N 37°02' E 012°20'713.2
2017-Sep-16 05:00N 37°04' E 012°12'713.5
2017-Sep-16 04:31N 37°07' E 012°04'713.3
2017-Sep-16 04:01N 37°09' E 011°56'712.9
2017-Sep-16 03:30N 37°11' E 011°48'613.1
2017-Sep-16 03:00N 37°13' E 011°40'713.2
2017-Sep-16 02:30N 37°15' E 011°32'713.3
2017-Sep-16 02:00N 37°17' E 011°24'2113.5
2017-Sep-16 00:26N 37°26' E 011°00'713.6
2017-Sep-15 23:57N 37°27' E 010°52'1113.8
2017-Sep-15 23:08N 37°30' E 010°38'214.1
2017-Sep-15 23:00N 37°30' E 010°36'714.2
2017-Sep-15 22:30N 37°32' E 010°27'714.5
2017-Sep-15 22:00N 37°33' E 010°19'714.3
2017-Sep-15 21:30N 37°34' E 010°09'714.1
2017-Sep-15 21:00N 37°34' E 010°01'713.9
2017-Sep-15 20:30N 37°35' E 009°52'714.0
2017-Sep-15 20:00N 37°35' E 009°43'814.0
2017-Sep-15 19:27N 37°36' E 009°33'4613.4
2017-Sep-15 16:01N 37°35' E 008°35'013.0
2017-Sep-15 15:59N 37°35' E 008°35'1012.7
2017-Sep-15 15:11N 37°34' E 008°22'2512.6
2017-Sep-15 13:13N 37°30' E 007°51'313.1
2017-Sep-15 12:59N 37°30' E 007°47'19913.6
2017-Sep-14 22:23N 37°02' E 003°40'513.5
2017-Sep-14 22:00N 36°60' E 003°34'913.7
2017-Sep-14 21:20N 36°58' E 003°23'2314.0
2017-Sep-14 19:41N 36°55' E 002°54'213.8
2017-Sep-14 19:30N 36°54' E 002°51'714.0
2017-Sep-14 19:00N 36°53' E 002°42'713.6
2017-Sep-14 18:29N 36°52' E 002°34'914.0
2017-Sep-14 17:52N 36°51' E 002°23'713.7
2017-Sep-14 17:22N 36°50' E 002°15'613.5
2017-Sep-14 16:57N 36°49' E 002°08'613.3
2017-Sep-14 16:30N 36°48' E 002°00'713.2
2017-Sep-14 16:00N 36°47' E 001°52'813.3
2017-Sep-14 15:25N 36°46' E 001°43'613.3
2017-Sep-14 14:59N 36°45' E 001°35'713.4
2017-Sep-14 14:29N 36°44' E 001°27'713.6
2017-Sep-14 13:59N 36°43' E 001°19'713.4
2017-Sep-14 13:28N 36°42' E 001°10'613.6
2017-Sep-14 13:00N 36°41' E 001°03'1214.1
2017-Sep-14 12:08N 36°40' E 000°48'214.3
2017-Sep-14 12:00N 36°39' E 000°45'714.3
2017-Sep-14 11:30N 36°38' E 000°36'714.2
2017-Sep-14 11:00N 36°37' E 000°28'1314.0
2017-Sep-14 10:03N 36°35' E 000°11'113.8
2017-Sep-14 09:58N 36°35' E 000°10'2913.8
2017-Sep-14 07:53N 36°31' W 000°25'513.7
2017-Sep-14 07:30N 36°30' W 000°32'713.5
2017-Sep-14 07:00N 36°29' W 000°40'713.6
2017-Sep-14 06:29N 36°28' W 000°49'813.5
2017-Sep-14 05:55N 36°27' W 000°59'613.8
2017-Sep-14 05:29N 36°26' W 001°06'714.0
2017-Sep-14 05:00N 36°25' W 001°14'914.3
2017-Sep-14 04:22N 36°24' W 001°25'514.3
2017-Sep-14 04:00N 36°23' W 001°32'714.2
2017-Sep-14 03:30N 36°22' W 001°40'714.1
2017-Sep-14 03:00N 36°21' W 001°49'714.0
2017-Sep-14 02:30N 36°20' W 001°58'713.8
2017-Sep-14 02:00N 36°19' W 002°06'15213.9
2017-Sep-13 15:02N 35°56' W 005°12'112.6
2017-Sep-13 14:59N 35°56' W 005°13'511.2
2017-Sep-13 14:30N 35°55' W 005°20'0 0.8
2017-Sep-13 13:58N 35°55' W 005°20'0 0.0
2017-Sep-13 13:28N 35°55' W 005°20'0 0.1
2017-Sep-13 12:58N 35°55' W 005°20'0 0.0
2017-Sep-13 12:28N 35°55' W 005°20'0 0.0
2017-Sep-13 11:58N 35°55' W 005°20'0 0.0
2017-Sep-13 11:28N 35°55' W 005°20'0 0.0
2017-Sep-13 10:58N 35°55' W 005°20'0 0.0
2017-Sep-13 10:28N 35°55' W 005°20'0 0.1
2017-Sep-13 09:58N 35°55' W 005°20'0 0.0
2017-Sep-13 09:28N 35°55' W 005°20'0 0.1
2017-Sep-13 08:58N 35°55' W 005°20'0 0.1
2017-Sep-13 08:28N 35°55' W 005°20'0 0.1
2017-Sep-13 07:58N 35°55' W 005°20'0 0.1
2017-Sep-13 07:28N 35°55' W 005°20'0 0.0
2017-Sep-13 06:58N 35°55' W 005°20'0 0.0
2017-Sep-13 06:28N 35°55' W 005°20'0 0.1
2017-Sep-13 05:58N 35°55' W 005°20'0 0.0
2017-Sep-13 05:28N 35°55' W 005°20'0 0.0
2017-Sep-13 04:58N 35°55' W 005°20'0 0.1
2017-Sep-13 04:29N 35°55' W 005°20'0 0.0
2017-Sep-13 03:59N 35°55' W 005°20'0 0.0
2017-Sep-13 03:29N 35°55' W 005°20'0 0.1
2017-Sep-13 02:59N 35°55' W 005°20'0 0.1
2017-Sep-13 02:29N 35°55' W 005°20'0 0.6
2017-Sep-13 02:00N 35°55' W 005°20'2 4.8
2017-Sep-13 01:30N 35°57' W 005°22'612.1
2017-Sep-13 01:00N 35°56' W 005°30'713.0
2017-Sep-13 00:27N 35°54' W 005°39'612.6
2017-Sep-13 00:00N 35°54' W 005°45'1312.8
2017-Sep-12 22:59N 35°54' W 006°02'8513.2
2017-Sep-12 16:31N 36°13' W 007°44'013.1
2017-Sep-12 16:30N 36°13' W 007°45'713.2
2017-Sep-12 16:00N 36°15' W 007°52'713.3
2017-Sep-12 15:30N 36°17' W 008°00'713.3
2017-Sep-12 15:00N 36°19' W 008°08'713.3
2017-Sep-12 14:30N 36°21' W 008°16'1213.4
2017-Sep-12 13:34N 36°24' W 008°31'113.5
2017-Sep-12 13:30N 36°24' W 008°32'713.7
2017-Sep-12 13:00N 36°26' W 008°41'713.5
2017-Sep-12 12:30N 36°28' W 008°49'713.4
2017-Sep-12 12:00N 36°29' W 008°57'713.5
2017-Sep-12 11:30N 36°31' W 009°05'813.6
2017-Sep-12 10:53N 36°34' W 009°15'713.3
2017-Sep-12 10:20N 36°38' W 009°22'513.4
2017-Sep-12 09:59N 36°41' W 009°26'4713.0
2017-Sep-12 06:24N 37°26' W 009°44'513.4
2017-Sep-12 06:00N 37°31' W 009°45'713.3
2017-Sep-12 05:30N 37°37' W 009°47'712.9
2017-Sep-12 05:00N 37°44' W 009°49'912.6
2017-Sep-12 04:16N 37°53' W 009°51'312.9
2017-Sep-12 04:00N 37°56' W 009°52'613.0
2017-Sep-12 03:30N 38°02' W 009°54'713.1
2017-Sep-12 03:00N 38°09' W 009°56'713.0
2017-Sep-12 02:30N 38°15' W 009°58'713.4
2017-Sep-12 02:00N 38°21' W 010°00'713.4
2017-Sep-12 01:30N 38°28' W 010°02'713.6
2017-Sep-12 01:00N 38°35' W 010°04'714.1
2017-Sep-12 00:30N 38°42' W 010°06'713.8
2017-Sep-12 00:00N 38°48' W 010°06'713.6
2017-Sep-11 23:30N 38°55' W 010°06'714.4
2017-Sep-11 23:00N 39°02' W 010°06'714.1
2017-Sep-11 22:30N 39°09' W 010°06'713.6
2017-Sep-11 22:00N 39°16' W 010°06'713.5
2017-Sep-11 21:30N 39°23' W 010°06'713.6
2017-Sep-11 21:00N 39°30' W 010°06'713.9
2017-Sep-11 20:30N 39°37' W 010°06'713.9
2017-Sep-11 20:00N 39°44' W 010°06'713.9
2017-Sep-11 19:29N 39°51' W 010°06'713.8
2017-Sep-11 19:00N 39°58' W 010°06'713.2
2017-Sep-11 18:30N 40°04' W 010°06'713.7
2017-Sep-11 18:00N 40°11' W 010°06'713.7
2017-Sep-11 17:30N 40°18' W 010°06'1513.2
2017-Sep-11 16:21N 40°33' W 010°06'613.4
2017-Sep-11 15:53N 40°39' W 010°06'59611.7
2017-Sep-09 13:08N 49°36' W 003°58'214.0
2017-Sep-09 13:00N 49°36' W 003°56'713.7
2017-Sep-09 12:30N 49°40' W 003°47'713.1
2017-Sep-09 12:00N 49°43' W 003°38'612.6
2017-Sep-09 11:30N 49°46' W 003°30'612.0
2017-Sep-09 11:00N 49°49' W 003°22'611.6
2017-Sep-09 10:30N 49°52' W 003°14'511.0
2017-Sep-09 10:00N 49°55' W 003°06'510.6
2017-Sep-09 09:30N 49°58' W 002°59'510.2
2017-Sep-09 09:00N 49°60' W 002°52'510.2
2017-Sep-09 08:30N 50°01' W 002°44'610.4
2017-Sep-09 07:58N 50°03' W 002°36'2411.7
2017-Sep-09 05:56N 50°09' W 002°00'614.1
2017-Sep-09 05:30N 50°11' W 001°51'815.1
2017-Sep-09 05:01N 50°13' W 001°40'815.7
2017-Sep-09 04:30N 50°15' W 001°28'816.0
2017-Sep-09 04:00N 50°17' W 001°16'3115.4
2017-Sep-09 01:58N 50°25' W 000°28'613.7
2017-Sep-09 01:30N 50°26' W 000°19'613.0
2017-Sep-09 01:00N 50°28' W 000°09'612.2
2017-Sep-09 00:30N 50°30' E 000°00'611.6
2017-Sep-09 00:00N 50°32' E 000°09'611.0
2017-Sep-08 23:30N 50°33' E 000°17'510.7
2017-Sep-08 23:00N 50°34' E 000°25'510.1
2017-Sep-08 22:30N 50°36' E 000°33'510.1
2017-Sep-08 22:00N 50°38' E 000°40'510.4
2017-Sep-08 21:30N 50°41' E 000°47'611.2
2017-Sep-08 21:00N 50°44' E 000°54'612.0
2017-Sep-08 20:30N 50°48' E 001°02'713.2
2017-Sep-08 20:00N 50°52' E 001°11'713.4
2017-Sep-08 19:30N 50°55' E 001°19'714.1
2017-Sep-08 19:00N 51°01' E 001°26'713.1
2017-Sep-08 18:30N 51°06' E 001°33'612.3
2017-Sep-08 18:00N 51°10' E 001°40'611.7
2017-Sep-08 17:30N 51°14' E 001°46'611.3
2017-Sep-08 17:00N 51°19' E 001°50'510.8
2017-Sep-08 16:30N 51°24' E 001°54'510.3
2017-Sep-08 16:00N 51°28' E 001°59'510.2
2017-Sep-08 15:30N 51°32' E 002°05'510.0
2017-Sep-08 15:00N 51°36' E 002°10'5 9.9
2017-Sep-08 14:30N 51°40' E 002°16'1510.8
2017-Sep-08 13:04N 51°51' E 002°32'111.6
2017-Sep-08 13:00N 51°52' E 002°33'  

Dump ship's entire track history